createdAt,value
2023-01-19T00:00:39.616Z,11.10
2023-01-19T00:01:39.511Z,10.30
2023-01-19T00:02:39.554Z,10.30
2023-01-19T00:03:39.494Z,10.10
2023-01-19T00:04:39.472Z,10.00
2023-01-19T00:05:39.461Z,10.90
2023-01-19T00:06:39.448Z,10.80
2023-01-19T00:07:39.467Z,10.10
2023-01-19T00:08:39.417Z,10.10
2023-01-19T00:09:39.413Z,10.00
2023-01-19T00:10:39.395Z,9.80
2023-01-19T00:11:39.423Z,10.20
2023-01-19T00:12:39.393Z,10.10
2023-01-19T00:13:39.355Z,9.50
2023-01-19T00:14:39.347Z,9.50
2023-01-19T00:15:39.367Z,9.30
2023-01-19T00:16:39.323Z,10.00
2023-01-19T00:17:39.325Z,10.50
2023-01-19T00:18:39.315Z,9.70
2023-01-19T00:19:39.285Z,10.20
2023-01-19T00:20:39.268Z,10.20
2023-01-19T00:21:39.255Z,10.30
2023-01-19T00:22:39.271Z,9.70
2023-01-19T00:23:39.237Z,9.60
2023-01-19T00:24:39.222Z,9.50
2023-01-19T00:25:39.207Z,8.50
2023-01-19T00:26:39.201Z,9.50
2023-01-19T00:27:39.199Z,9.50
2023-01-19T00:28:39.164Z,10.20
2023-01-19T00:29:39.152Z,9.20
2023-01-19T00:30:39.138Z,9.50
2023-01-19T00:31:39.204Z,10.30
2023-01-19T00:32:39.130Z,10.10
2023-01-19T00:33:39.124Z,9.80
2023-01-19T00:34:39.114Z,9.80
2023-01-19T00:35:39.078Z,9.50
2023-01-19T00:36:39.064Z,9.40
2023-01-19T00:37:39.071Z,8.90
2023-01-19T00:38:39.088Z,9.40
2023-01-19T00:39:39.028Z,9.30
2023-01-19T00:40:39.015Z,9.40
2023-01-19T00:41:39.011Z,9.60
2023-01-19T00:42:39.011Z,9.60
2023-01-19T00:43:38.983Z,9.40
2023-01-19T00:44:38.965Z,9.80
2023-01-19T00:45:38.987Z,8.30
2023-01-19T00:46:38.937Z,8.90
2023-01-19T00:47:38.941Z,9.10
2023-01-19T00:48:38.911Z,9.00
2023-01-19T00:49:38.899Z,9.50
2023-01-19T00:50:38.908Z,8.20
2023-01-19T00:51:38.878Z,8.60
2023-01-19T00:52:38.873Z,8.80
2023-01-19T00:53:38.858Z,8.50
2023-01-19T00:54:38.838Z,9.20
2023-01-19T00:55:38.829Z,7.90
2023-01-19T00:56:38.819Z,8.90
2023-01-19T00:57:38.838Z,9.00
2023-01-19T00:58:38.797Z,9.00
2023-01-19T00:59:38.772Z,7.30
2023-01-19T01:00:38.760Z,8.90
2023-01-19T01:01:45.556Z,9.40
2023-01-19T01:02:40.107Z,8.30
2023-01-19T01:03:38.734Z,8.70
2023-01-19T01:04:38.708Z,9.30
2023-01-19T01:05:38.696Z,8.50
2023-01-19T01:06:38.701Z,8.30
2023-01-19T01:07:38.705Z,8.30
2023-01-19T01:08:38.673Z,8.90
2023-01-19T01:09:38.656Z,8.80
2023-01-19T01:10:38.629Z,8.40
2023-01-19T01:11:38.636Z,8.30
2023-01-19T01:12:38.609Z,8.10
2023-01-19T01:13:38.608Z,7.30
2023-01-19T01:14:38.583Z,7.80
2023-01-19T01:15:38.573Z,8.40
2023-01-19T01:16:38.595Z,6.60
2023-01-19T01:17:38.555Z,8.30
2023-01-19T01:18:38.548Z,8.20
2023-01-19T01:19:38.528Z,8.50
2023-01-19T01:20:38.506Z,8.50
2023-01-19T01:21:38.501Z,7.80
2023-01-19T01:22:38.504Z,7.90
2023-01-19T01:23:38.485Z,8.30
2023-01-19T01:24:38.467Z,8.40
2023-01-19T01:25:38.452Z,8.20
2023-01-19T01:26:38.432Z,8.30
2023-01-19T01:27:38.418Z,8.90
2023-01-19T01:28:38.421Z,8.00
2023-01-19T01:29:38.399Z,8.60
2023-01-19T01:30:38.387Z,8.80
2023-01-19T01:31:38.398Z,8.20
2023-01-19T01:32:38.355Z,8.60
2023-01-19T01:33:40.821Z,8.40
2023-01-19T01:34:38.326Z,9.40
2023-01-19T01:35:38.327Z,8.30
2023-01-19T01:36:38.308Z,8.50
2023-01-19T01:37:38.296Z,9.00
2023-01-19T01:38:38.327Z,9.00
2023-01-19T01:39:38.275Z,8.60
2023-01-19T01:40:38.254Z,9.00
2023-01-19T01:41:38.241Z,8.90
2023-01-19T01:42:38.228Z,8.10
2023-01-19T01:43:38.231Z,8.70
2023-01-19T01:44:38.199Z,8.90
2023-01-19T01:45:38.236Z,9.30
2023-01-19T01:46:38.182Z,8.50
2023-01-19T01:47:38.169Z,8.90
2023-01-19T01:48:38.167Z,9.00
2023-01-19T01:49:38.138Z,9.00
2023-01-19T01:50:38.126Z,9.20
2023-01-19T01:51:38.121Z,8.80
2023-01-19T01:52:38.097Z,9.50
2023-01-19T01:53:38.110Z,8.60
2023-01-19T01:54:38.103Z,9.20
2023-01-19T01:55:38.070Z,9.30
2023-01-19T01:56:38.058Z,9.30
2023-01-19T01:57:38.042Z,9.50
2023-01-19T01:58:38.056Z,9.40
2023-01-19T01:59:38.014Z,9.70
2023-01-19T02:00:37.999Z,9.40
2023-01-19T02:01:38.070Z,9.80
2023-01-19T02:02:37.972Z,8.90
2023-01-19T02:03:38.093Z,9.00
2023-01-19T02:04:37.949Z,10.30
2023-01-19T02:05:37.939Z,9.30
2023-01-19T02:06:37.928Z,9.80
2023-01-19T02:07:37.909Z,9.80
2023-01-19T02:08:37.911Z,9.30
2023-01-19T02:09:37.890Z,9.60
2023-01-19T02:10:37.897Z,10.10
2023-01-19T02:11:37.863Z,9.80
2023-01-19T02:12:37.845Z,10.00
2023-01-19T02:13:37.854Z,10.70
2023-01-19T02:14:37.824Z,9.60
2023-01-19T02:15:37.809Z,9.30
2023-01-19T02:16:37.906Z,9.50
2023-01-19T02:17:37.784Z,10.40
2023-01-19T02:18:37.799Z,9.60
2023-01-19T02:19:37.763Z,9.80
2023-01-19T02:20:37.768Z,10.00
2023-01-19T02:21:37.738Z,9.80
2023-01-19T02:22:37.717Z,9.90
2023-01-19T02:23:37.708Z,9.70
2023-01-19T02:24:37.707Z,9.60
2023-01-19T02:25:37.677Z,10.20
2023-01-19T02:26:37.687Z,10.50
2023-01-19T02:27:37.657Z,10.20
2023-01-19T02:28:37.639Z,10.40
2023-01-19T02:29:37.647Z,10.20
2023-01-19T02:30:37.638Z,11.00
2023-01-19T02:31:37.605Z,10.20
2023-01-19T02:32:37.596Z,10.70
2023-01-19T02:33:37.579Z,11.00
2023-01-19T02:34:37.577Z,10.90
2023-01-19T02:35:37.553Z,10.90
2023-01-19T02:36:37.542Z,10.60
2023-01-19T02:37:37.556Z,11.50
2023-01-19T02:38:37.515Z,10.40
2023-01-19T02:39:37.513Z,10.40
2023-01-19T02:40:37.486Z,10.70
2023-01-19T02:41:37.477Z,10.70
2023-01-19T02:42:37.563Z,10.10
2023-01-19T02:43:37.457Z,9.90
2023-01-19T02:44:37.460Z,10.50
2023-01-19T02:45:37.428Z,11.00
2023-01-19T02:46:37.416Z,10.10
2023-01-19T02:47:37.410Z,10.40
2023-01-19T02:48:37.393Z,9.70
2023-01-19T02:49:37.391Z,10.60
2023-01-19T02:50:37.361Z,9.60
2023-01-19T02:51:37.366Z,10.40
2023-01-19T02:52:37.341Z,9.00
2023-01-19T02:53:37.329Z,9.20
2023-01-19T02:54:37.330Z,9.80
2023-01-19T02:55:37.303Z,9.60
2023-01-19T02:56:37.302Z,9.90
2023-01-19T02:57:37.283Z,9.80
2023-01-19T02:58:37.303Z,10.00
2023-01-19T02:59:37.283Z,9.10
2023-01-19T03:00:37.254Z,10.00
2023-01-19T03:01:37.418Z,10.10
2023-01-19T03:02:37.363Z,8.90
2023-01-19T03:03:37.200Z,9.30
2023-01-19T03:04:37.217Z,10.10
2023-01-19T03:05:37.180Z,9.50
2023-01-19T03:06:37.171Z,9.80
2023-01-19T03:07:37.152Z,9.80
2023-01-19T03:08:37.138Z,9.60
2023-01-19T03:09:37.171Z,9.80
2023-01-19T03:10:37.117Z,10.10
2023-01-19T03:11:37.103Z,10.10
2023-01-19T03:12:37.096Z,10.40
2023-01-19T03:13:37.073Z,9.70
2023-01-19T03:14:37.103Z,9.70
2023-01-19T03:15:37.123Z,9.80
2023-01-19T03:16:37.056Z,9.40
2023-01-19T03:17:37.041Z,10.00
2023-01-19T03:18:37.016Z,9.40
2023-01-19T03:19:37.024Z,9.50
2023-01-19T03:20:36.989Z,10.30
2023-01-19T03:21:36.975Z,9.30
2023-01-19T03:22:36.977Z,10.30
2023-01-19T03:23:36.950Z,10.10
2023-01-19T03:24:37.774Z,10.40
2023-01-19T03:25:36.928Z,9.50
2023-01-19T03:26:36.916Z,10.20
2023-01-19T03:27:36.899Z,10.70
2023-01-19T03:28:36.897Z,9.30
2023-01-19T03:29:36.876Z,10.40
2023-01-19T03:30:36.937Z,11.00
2023-01-19T03:31:36.857Z,10.10
2023-01-19T03:32:36.850Z,10.50
2023-01-19T03:33:36.844Z,10.00
2023-01-19T03:34:36.821Z,10.60
2023-01-19T03:35:36.817Z,9.00
2023-01-19T03:36:36.792Z,9.90
2023-01-19T03:37:36.792Z,11.50
2023-01-19T03:38:36.765Z,10.30
2023-01-19T03:39:36.756Z,10.40
2023-01-19T03:40:36.759Z,10.50
2023-01-19T03:41:36.730Z,11.00
2023-01-19T03:42:36.713Z,10.30
2023-01-19T03:43:36.704Z,10.20
2023-01-19T03:44:36.696Z,10.80
2023-01-19T03:45:36.693Z,10.50
2023-01-19T03:46:36.689Z,10.10
2023-01-19T03:47:36.656Z,10.30
2023-01-19T03:48:36.643Z,10.60
2023-01-19T03:49:36.633Z,10.00
2023-01-19T03:50:36.640Z,10.20
2023-01-19T03:51:36.608Z,10.70
2023-01-19T03:52:36.591Z,11.50
2023-01-19T03:53:36.590Z,9.40
2023-01-19T03:54:36.570Z,9.20
2023-01-19T03:55:36.569Z,9.80
2023-01-19T03:56:36.546Z,10.10
2023-01-19T03:57:36.527Z,10.20
2023-01-19T03:58:36.513Z,10.50
2023-01-19T03:59:36.514Z,11.00
2023-01-19T04:00:36.571Z,9.40
2023-01-19T04:01:36.594Z,11.80
2023-01-19T04:02:36.537Z,11.70
2023-01-19T04:03:36.460Z,10.40
2023-01-19T04:04:36.450Z,11.40
2023-01-19T04:05:36.452Z,11.50
2023-01-19T04:06:36.415Z,11.20
2023-01-19T04:07:36.403Z,12.50
2023-01-19T04:08:36.397Z,11.40
2023-01-19T04:09:36.375Z,10.80
2023-01-19T04:10:36.388Z,12.20
2023-01-19T04:11:36.366Z,12.20
2023-01-19T04:12:36.348Z,11.90
2023-01-19T04:13:36.324Z,12.30
2023-01-19T04:14:36.313Z,12.00
2023-01-19T04:15:36.346Z,11.10
2023-01-19T04:16:36.290Z,10.60
2023-01-19T04:17:36.285Z,11.30
2023-01-19T04:18:36.287Z,11.70
2023-01-19T04:19:36.250Z,11.60
2023-01-19T04:20:36.251Z,13.00
2023-01-19T04:21:36.222Z,11.00
2023-01-19T04:22:36.220Z,12.10
2023-01-19T04:23:36.198Z,12.80
2023-01-19T04:24:36.189Z,11.00
2023-01-19T04:25:38.018Z,11.40
2023-01-19T04:26:36.173Z,11.70
2023-01-19T04:27:36.149Z,12.40
2023-01-19T04:28:36.137Z,11.90
2023-01-19T04:29:36.134Z,9.30
2023-01-19T04:30:36.128Z,11.40
2023-01-19T04:31:36.153Z,12.50
2023-01-19T04:32:36.119Z,12.00
2023-01-19T04:33:36.081Z,12.40
2023-01-19T04:34:36.090Z,10.20
2023-01-19T04:35:36.064Z,12.10
2023-01-19T04:36:36.039Z,11.40
2023-01-19T04:37:36.022Z,12.60
2023-01-19T04:38:36.057Z,12.20
2023-01-19T04:39:36.005Z,10.90
2023-01-19T04:40:36.016Z,11.60
2023-01-19T04:41:35.967Z,12.30
2023-01-19T04:42:35.967Z,11.70
2023-01-19T04:43:35.951Z,12.00
2023-01-19T04:44:35.934Z,11.20
2023-01-19T04:45:35.930Z,11.60
2023-01-19T04:46:35.943Z,11.90
2023-01-19T04:47:35.893Z,10.80
2023-01-19T04:48:35.891Z,12.00
2023-01-19T04:49:35.875Z,11.20
2023-01-19T04:50:35.881Z,9.40
2023-01-19T04:51:35.860Z,12.30
2023-01-19T04:52:35.837Z,12.00
2023-01-19T04:53:35.820Z,12.40
2023-01-19T04:54:35.865Z,12.00
2023-01-19T04:55:35.795Z,12.70
2023-01-19T04:56:35.797Z,12.90
2023-01-19T04:57:35.911Z,11.90
2023-01-19T04:58:35.760Z,10.30
2023-01-19T04:59:35.747Z,9.60
2023-01-19T05:00:35.734Z,12.40
2023-01-19T05:01:35.776Z,13.20
2023-01-19T05:02:36.137Z,12.60
2023-01-19T05:03:35.695Z,13.10
2023-01-19T05:04:35.685Z,13.20
2023-01-19T05:05:35.670Z,10.50
2023-01-19T05:06:35.694Z,12.70
2023-01-19T05:07:35.646Z,12.60
2023-01-19T05:08:35.647Z,12.60
2023-01-19T05:09:35.635Z,12.20
2023-01-19T05:10:35.610Z,13.10
2023-01-19T05:11:35.614Z,13.50
2023-01-19T05:12:35.584Z,13.00
2023-01-19T05:13:35.588Z,12.80
2023-01-19T05:14:35.559Z,12.40
2023-01-19T05:15:35.553Z,12.60
2023-01-19T05:16:35.600Z,14.50
2023-01-19T05:17:35.523Z,12.20
2023-01-19T05:18:35.511Z,14.00
2023-01-19T05:19:35.492Z,13.00
2023-01-19T05:20:35.484Z,12.30
2023-01-19T05:21:35.484Z,12.40
2023-01-19T05:22:35.498Z,13.50
2023-01-19T05:23:35.444Z,12.90
2023-01-19T05:24:35.444Z,13.00
2023-01-19T05:25:35.418Z,11.70
2023-01-19T05:26:35.422Z,13.60
2023-01-19T05:27:35.396Z,13.80
2023-01-19T05:28:35.385Z,14.10
2023-01-19T05:29:35.375Z,13.50
2023-01-19T05:30:35.424Z,13.40
2023-01-19T05:31:35.464Z,12.90
2023-01-19T05:32:35.331Z,13.30
2023-01-19T05:33:35.319Z,14.40
2023-01-19T05:34:35.321Z,14.10
2023-01-19T05:35:36.401Z,13.50
2023-01-19T05:36:35.299Z,13.70
2023-01-19T05:37:35.287Z,13.40
2023-01-19T05:38:36.070Z,13.60
2023-01-19T05:39:35.248Z,14.90
2023-01-19T05:40:35.227Z,13.60
2023-01-19T05:41:35.233Z,14.00
2023-01-19T05:42:35.207Z,13.20
2023-01-19T05:43:35.194Z,14.50
2023-01-19T05:44:35.177Z,13.30
2023-01-19T05:45:35.175Z,13.60
2023-01-19T05:46:35.199Z,13.70
2023-01-19T05:47:35.142Z,14.40
2023-01-19T05:48:35.142Z,12.80
2023-01-19T05:49:35.115Z,13.40
2023-01-19T05:50:35.108Z,15.10
2023-01-19T05:51:35.137Z,13.30
2023-01-19T05:52:35.088Z,13.10
2023-01-19T05:53:35.064Z,13.80
2023-01-19T05:54:35.073Z,14.40
2023-01-19T05:55:35.049Z,14.10
2023-01-19T05:56:35.030Z,14.20
2023-01-19T05:57:35.058Z,13.60
2023-01-19T05:58:35.003Z,13.70
2023-01-19T05:59:34.989Z,13.20
2023-01-19T06:00:34.983Z,13.90
2023-01-19T06:01:35.009Z,14.40
2023-01-19T06:02:34.970Z,14.50
2023-01-19T06:03:35.009Z,14.50
2023-01-19T06:04:34.933Z,14.90
2023-01-19T06:05:34.919Z,14.70
2023-01-19T06:06:34.911Z,13.80
2023-01-19T06:07:34.907Z,14.20
2023-01-19T06:08:34.886Z,14.10
2023-01-19T06:09:34.863Z,14.60
2023-01-19T06:10:34.873Z,14.90
2023-01-19T06:11:34.842Z,13.00
2023-01-19T06:12:34.848Z,13.90
2023-01-19T06:13:34.816Z,14.90
2023-01-19T06:14:34.812Z,14.10
2023-01-19T06:15:34.787Z,13.20
2023-01-19T06:16:34.833Z,14.50
2023-01-19T06:17:34.782Z,14.90
2023-01-19T06:18:34.769Z,14.10
2023-01-19T06:19:34.762Z,15.10
2023-01-19T06:20:34.729Z,15.60
2023-01-19T06:21:34.748Z,14.40
2023-01-19T06:22:34.716Z,14.00
2023-01-19T06:23:34.705Z,14.00
2023-01-19T06:24:34.680Z,14.10
2023-01-19T06:25:34.665Z,14.50
2023-01-19T06:26:34.675Z,14.10
2023-01-19T06:27:34.662Z,14.20
2023-01-19T06:28:34.627Z,14.20
2023-01-19T06:29:34.618Z,13.70
2023-01-19T06:30:34.687Z,13.50
2023-01-19T06:31:34.654Z,13.60
2023-01-19T06:32:34.596Z,13.40
2023-01-19T06:33:34.570Z,12.70
2023-01-19T06:34:34.555Z,13.90
2023-01-19T06:35:34.537Z,13.80
2023-01-19T06:36:34.538Z,13.10
2023-01-19T06:37:34.525Z,14.50
2023-01-19T06:38:34.501Z,13.80
2023-01-19T06:39:34.487Z,14.40
2023-01-19T06:40:34.476Z,14.70
2023-01-19T06:41:34.472Z,14.10
2023-01-19T06:42:34.508Z,15.10
2023-01-19T06:43:34.456Z,14.20
2023-01-19T06:44:34.428Z,15.60
2023-01-19T06:45:34.500Z,14.90
2023-01-19T06:46:34.399Z,14.40
2023-01-19T06:47:34.426Z,14.40
2023-01-19T06:48:34.375Z,14.20
2023-01-19T06:49:34.358Z,15.40
2023-01-19T06:50:34.351Z,15.90
2023-01-19T06:51:34.337Z,15.10
2023-01-19T06:52:34.356Z,15.20
2023-01-19T06:53:34.308Z,17.30
2023-01-19T06:54:34.300Z,15.30
2023-01-19T06:55:34.284Z,13.20
2023-01-19T06:56:34.283Z,13.70
2023-01-19T06:57:34.307Z,13.80
2023-01-19T06:58:34.282Z,13.10
2023-01-19T06:59:34.238Z,13.40
2023-01-19T07:00:34.233Z,14.50
2023-01-19T07:01:34.288Z,14.20
2023-01-19T07:02:34.381Z,16.50
2023-01-19T07:03:34.200Z,14.30
2023-01-19T07:04:34.168Z,14.30
2023-01-19T07:05:34.165Z,13.40
2023-01-19T07:06:34.150Z,13.70
2023-01-19T07:07:34.139Z,12.80
2023-01-19T07:08:34.147Z,13.60
2023-01-19T07:09:34.119Z,12.60
2023-01-19T07:11:25.976Z,12.20
2023-01-19T07:11:34.090Z,13.50
2023-01-19T07:12:34.074Z,13.50
2023-01-19T07:13:34.120Z,13.00
2023-01-19T07:14:34.163Z,13.30
2023-01-19T07:15:34.055Z,11.90
2023-01-19T07:16:34.024Z,11.70
2023-01-19T07:17:34.011Z,14.70
2023-01-19T07:18:34.014Z,13.80
2023-01-19T07:19:33.984Z,13.70
2023-01-19T07:20:33.972Z,13.80
2023-01-19T07:21:33.961Z,12.00
2023-01-19T07:22:33.951Z,13.00
2023-01-19T07:23:33.959Z,11.20
2023-01-19T07:24:33.920Z,15.60
2023-01-19T07:25:33.908Z,14.00
2023-01-19T07:26:33.893Z,14.70
2023-01-19T07:27:33.889Z,14.90
2023-01-19T07:28:33.920Z,12.50
2023-01-19T07:29:33.857Z,11.70
2023-01-19T07:30:34.006Z,14.10
2023-01-19T07:31:33.979Z,14.30
2023-01-19T07:32:33.819Z,14.20
2023-01-19T07:33:33.834Z,14.60
2023-01-19T07:34:33.790Z,12.30
2023-01-19T07:35:33.799Z,12.50
2023-01-19T07:36:33.785Z,13.70
2023-01-19T07:37:33.765Z,13.30
2023-01-19T07:38:33.762Z,13.60
2023-01-19T07:39:33.740Z,12.40
2023-01-19T07:40:33.747Z,12.60
2023-01-19T07:41:33.709Z,12.50
2023-01-19T07:42:33.709Z,12.00
2023-01-19T07:43:33.714Z,12.70
2023-01-19T07:44:33.673Z,10.90
2023-01-19T07:45:33.663Z,12.20
2023-01-19T07:46:33.673Z,12.90
2023-01-19T07:47:33.639Z,11.10
2023-01-19T07:48:33.654Z,12.50
2023-01-19T07:49:33.612Z,12.20
2023-01-19T07:50:33.599Z,12.10
2023-01-19T07:51:33.586Z,12.20
2023-01-19T07:52:33.576Z,11.80
2023-01-19T07:53:33.572Z,11.60
2023-01-19T07:54:33.547Z,12.90
2023-01-19T07:55:33.527Z,11.00
2023-01-19T07:56:33.901Z,11.10
2023-01-19T07:57:33.505Z,11.60
2023-01-19T07:58:33.507Z,12.70
2023-01-19T07:59:33.480Z,10.90
2023-01-19T08:00:33.467Z,12.60
2023-01-19T08:01:33.536Z,9.50
2023-01-19T08:02:33.477Z,12.10
2023-01-19T08:03:33.431Z,12.30
2023-01-19T08:04:33.504Z,12.50
2023-01-19T08:05:33.416Z,11.20
2023-01-19T08:06:33.391Z,10.50
2023-01-19T08:07:33.384Z,12.10
2023-01-19T08:08:33.369Z,11.00
2023-01-19T08:09:33.367Z,10.90
2023-01-19T08:10:33.345Z,10.90
2023-01-19T08:11:33.328Z,9.70
2023-01-19T08:12:33.315Z,11.00
2023-01-19T08:13:33.311Z,10.80
2023-01-19T08:14:33.338Z,12.00
2023-01-19T08:15:33.338Z,11.70
2023-01-19T08:16:33.271Z,10.40
2023-01-19T08:17:33.257Z,11.40
2023-01-19T08:18:33.276Z,10.70
2023-01-19T08:19:33.249Z,11.60
2023-01-19T08:20:33.217Z,11.90
2023-01-19T08:21:33.218Z,11.30
2023-01-19T08:22:33.197Z,12.60
2023-01-19T08:23:33.196Z,9.80
2023-01-19T08:24:33.189Z,11.00
2023-01-19T08:25:33.159Z,10.60
2023-01-19T08:26:33.135Z,12.20
2023-01-19T08:27:33.129Z,9.50
2023-01-19T08:28:33.115Z,11.50
2023-01-19T08:29:33.121Z,12.30
2023-01-19T08:30:33.201Z,12.20
2023-01-19T08:31:33.301Z,11.60
2023-01-19T08:32:33.062Z,11.30
2023-01-19T08:33:33.054Z,11.30
2023-01-19T08:34:33.099Z,11.30
2023-01-19T08:35:33.047Z,12.20
2023-01-19T08:36:33.014Z,12.20
2023-01-19T08:37:34.297Z,11.80
2023-01-19T08:38:32.988Z,11.90
2023-01-19T08:39:32.992Z,10.70
2023-01-19T08:40:32.961Z,11.10
2023-01-19T08:41:32.955Z,11.30
2023-01-19T08:42:32.939Z,10.30
2023-01-19T08:43:35.264Z,10.80
2023-01-19T08:44:32.929Z,10.60
2023-01-19T08:45:32.907Z,9.80
2023-01-19T08:46:32.932Z,9.80
2023-01-19T08:47:32.921Z,10.00
2023-01-19T08:48:32.859Z,9.30
2023-01-19T08:49:32.868Z,10.30
2023-01-19T08:50:32.862Z,10.00
2023-01-19T08:51:32.827Z,10.00
2023-01-19T08:52:32.841Z,10.20
2023-01-19T08:53:32.858Z,10.20
2023-01-19T08:54:32.799Z,9.80
2023-01-19T08:55:32.776Z,9.30
2023-01-19T08:56:32.757Z,9.40
2023-01-19T08:57:32.761Z,9.80
2023-01-19T08:58:32.726Z,9.90
2023-01-19T08:59:32.733Z,9.80
2023-01-19T09:00:32.706Z,9.20
2023-01-19T09:01:32.762Z,9.90
2023-01-19T09:02:32.823Z,10.20
2023-01-19T09:03:32.665Z,9.30
2023-01-19T09:04:32.666Z,9.60
2023-01-19T09:05:32.639Z,9.90
2023-01-19T09:06:32.699Z,9.40
2023-01-19T09:07:35.342Z,9.90
2023-01-19T09:08:32.599Z,9.90
2023-01-19T09:09:32.613Z,9.90
2023-01-19T09:10:32.572Z,9.40
2023-01-19T09:11:32.561Z,9.10
2023-01-19T09:12:32.558Z,9.30
2023-01-19T09:13:32.533Z,9.60
2023-01-19T09:14:32.563Z,9.10
2023-01-19T09:15:32.509Z,9.40
2023-01-19T09:16:32.503Z,9.70
2023-01-19T09:17:32.484Z,9.30
2023-01-19T09:18:32.465Z,8.70
2023-01-19T09:19:33.750Z,9.70
2023-01-19T09:20:32.462Z,9.50
2023-01-19T09:21:32.431Z,10.00
2023-01-19T09:22:32.496Z,10.10
2023-01-19T09:23:32.405Z,9.60
2023-01-19T09:24:32.398Z,9.70
2023-01-19T09:25:32.398Z,9.30
2023-01-19T09:26:33.286Z,10.00
2023-01-19T09:27:32.362Z,9.40
2023-01-19T09:28:32.336Z,9.60
2023-01-19T09:29:32.336Z,9.40
2023-01-19T09:30:32.360Z,9.80
2023-01-19T09:31:32.297Z,9.30
2023-01-19T09:32:32.286Z,8.90
2023-01-19T09:33:32.267Z,8.90
2023-01-19T09:34:32.253Z,9.50
2023-01-19T09:35:32.259Z,9.50
2023-01-19T09:36:32.229Z,8.90
2023-01-19T09:37:32.217Z,9.70
2023-01-19T09:38:32.228Z,8.90
2023-01-19T09:39:32.253Z,9.40
2023-01-19T09:40:32.197Z,9.30
2023-01-19T09:41:32.172Z,9.30
2023-01-19T09:42:32.152Z,9.70
2023-01-19T09:43:32.140Z,8.90
2023-01-19T09:44:32.135Z,9.80
2023-01-19T09:45:32.127Z,9.80
2023-01-19T09:46:32.248Z,9.30
2023-01-19T09:47:32.092Z,9.40
2023-01-19T09:48:32.080Z,9.50
2023-01-19T09:49:32.060Z,9.90
2023-01-19T09:50:32.108Z,9.00
2023-01-19T09:51:32.042Z,9.10
2023-01-19T09:52:32.032Z,9.40
2023-01-19T09:53:32.058Z,9.30
2023-01-19T09:54:32.039Z,9.70
2023-01-19T09:55:31.999Z,8.50
2023-01-19T09:56:31.992Z,9.90
2023-01-19T09:57:31.956Z,9.50
2023-01-19T09:58:31.952Z,9.30
2023-01-19T09:59:31.929Z,8.80
2023-01-19T10:00:31.946Z,9.30
2023-01-19T10:01:34.634Z,9.60
2023-01-19T10:02:31.902Z,9.40
2023-01-19T10:03:31.879Z,9.20
2023-01-19T10:04:31.869Z,9.60
2023-01-19T10:05:31.876Z,9.50
2023-01-19T10:06:31.834Z,9.20
2023-01-19T10:07:31.831Z,8.60
2023-01-19T10:08:31.821Z,9.10
2023-01-19T10:09:31.801Z,9.70
2023-01-19T10:10:31.823Z,9.50
2023-01-19T10:11:41.858Z,9.10
2023-01-19T10:12:32.799Z,9.10
2023-01-19T10:13:31.756Z,8.50
2023-01-19T10:14:31.736Z,8.80
2023-01-19T10:15:31.740Z,9.00
2023-01-19T10:16:31.749Z,9.00
2023-01-19T10:17:31.697Z,8.60
2023-01-19T10:18:31.684Z,8.90
2023-01-19T10:19:31.671Z,9.00
2023-01-19T10:20:31.685Z,8.70
2023-01-19T10:21:31.664Z,8.00
2023-01-19T10:22:31.630Z,7.90
2023-01-19T10:23:31.620Z,8.40
2023-01-19T10:24:31.633Z,8.60
2023-01-19T10:25:31.721Z,8.70
2023-01-19T10:26:31.603Z,8.50
2023-01-19T10:27:31.577Z,8.20
2023-01-19T10:28:31.562Z,8.30
2023-01-19T10:29:31.572Z,7.80
2023-01-19T10:30:31.572Z,7.80
2023-01-19T10:31:31.773Z,8.20
2023-01-19T10:32:31.537Z,7.70
2023-01-19T10:33:31.486Z,7.80
2023-01-19T10:34:31.495Z,8.00
2023-01-19T10:35:31.504Z,8.00
2023-01-19T10:36:31.480Z,6.80
2023-01-19T10:37:31.455Z,7.10
2023-01-19T10:38:31.470Z,7.20
2023-01-19T10:39:31.842Z,6.60
2023-01-19T10:40:31.424Z,6.40
2023-01-19T10:41:31.398Z,4.90
2023-01-19T10:42:31.474Z,6.30
2023-01-19T10:43:31.358Z,5.50
2023-01-19T10:44:31.391Z,5.80
2023-01-19T10:45:31.462Z,6.30
2023-01-19T10:46:31.392Z,5.40
2023-01-19T10:47:31.343Z,6.20
2023-01-19T10:48:31.287Z,6.20
2023-01-19T10:49:31.292Z,6.50
2023-01-19T10:50:31.282Z,5.10
2023-01-19T10:51:31.343Z,3.80
2023-01-19T10:52:31.308Z,6.00
2023-01-19T10:53:31.274Z,5.30
2023-01-19T10:54:31.210Z,5.60
2023-01-19T10:55:31.248Z,5.70
2023-01-19T10:56:31.207Z,5.50
2023-01-19T10:57:31.244Z,6.80
2023-01-19T10:58:31.256Z,6.50
2023-01-19T10:59:31.209Z,5.70
2023-01-19T11:00:31.157Z,6.60
2023-01-19T11:01:31.398Z,5.90
2023-01-19T11:02:31.412Z,6.10
2023-01-19T11:03:31.115Z,5.60
2023-01-19T11:04:31.137Z,7.30
2023-01-19T11:05:31.068Z,6.50
2023-01-19T11:06:31.072Z,6.60
2023-01-19T11:07:31.041Z,6.60
2023-01-19T11:08:31.034Z,5.70
2023-01-19T11:09:31.029Z,6.60
2023-01-19T11:10:31.001Z,6.60
2023-01-19T11:11:31.002Z,8.00
2023-01-19T11:12:30.973Z,7.80
2023-01-19T11:13:30.976Z,8.40
2023-01-19T11:14:30.968Z,6.80
2023-01-19T11:15:30.957Z,8.30
2023-01-19T11:16:30.986Z,7.90
2023-01-19T11:17:30.911Z,5.90
2023-01-19T11:18:30.902Z,6.50
2023-01-19T11:19:30.895Z,5.70
2023-01-19T11:20:30.877Z,8.00
2023-01-19T11:21:30.872Z,7.30
2023-01-19T11:22:30.849Z,8.70
2023-01-19T11:23:30.837Z,8.40
2023-01-19T11:24:30.820Z,7.50
2023-01-19T11:25:30.806Z,6.60
2023-01-19T11:26:30.813Z,7.20
2023-01-19T11:27:30.783Z,8.80
2023-01-19T11:28:30.775Z,8.60
2023-01-19T11:29:30.758Z,8.00
2023-01-19T11:30:30.768Z,8.30
2023-01-19T11:31:30.806Z,9.30
2023-01-19T11:32:30.723Z,8.70
2023-01-19T11:33:30.709Z,9.70
2023-01-19T11:34:30.695Z,8.70
2023-01-19T11:35:30.689Z,8.30
2023-01-19T11:36:30.705Z,8.20
2023-01-19T11:37:30.666Z,7.10
2023-01-19T11:38:30.643Z,8.10
2023-01-19T11:39:30.633Z,9.30
2023-01-19T11:40:30.618Z,10.40
2023-01-19T11:41:30.627Z,10.00
2023-01-19T11:42:30.594Z,10.40
2023-01-19T11:43:43.494Z,10.50
2023-01-19T11:44:30.583Z,10.10
2023-01-19T11:45:30.639Z,8.70
2023-01-19T11:46:30.597Z,10.20
2023-01-19T11:47:30.537Z,9.80
2023-01-19T11:48:30.518Z,10.50
2023-01-19T11:49:30.506Z,10.70
2023-01-19T11:50:30.491Z,10.20
2023-01-19T11:51:30.476Z,10.50
2023-01-19T11:52:30.483Z,8.80
2023-01-19T11:53:30.456Z,7.90
2023-01-19T11:54:30.441Z,9.50
2023-01-19T11:55:30.432Z,8.70
2023-01-19T11:56:30.420Z,9.10
2023-01-19T11:57:30.417Z,9.50
2023-01-19T11:58:30.392Z,9.20
2023-01-19T11:59:30.376Z,9.00
2023-01-19T12:00:30.375Z,9.30
2023-01-19T12:01:30.357Z,10.20
2023-01-19T12:02:30.446Z,8.60
2023-01-19T12:03:30.347Z,10.80
2023-01-19T12:04:30.329Z,8.40
2023-01-19T12:05:30.302Z,9.10
2023-01-19T12:06:30.299Z,10.00
2023-01-19T12:07:30.296Z,9.10
2023-01-19T12:08:30.265Z,10.10
2023-01-19T12:09:30.281Z,8.20
2023-01-19T12:10:30.244Z,9.90
2023-01-19T12:11:30.239Z,9.40
2023-01-19T12:12:30.232Z,9.00
2023-01-19T12:13:30.202Z,8.80
2023-01-19T12:14:30.193Z,8.20
2023-01-19T12:15:30.179Z,8.20
2023-01-19T12:16:30.198Z,8.90
2023-01-19T12:17:30.161Z,8.50
2023-01-19T12:18:30.161Z,9.10
2023-01-19T12:19:30.136Z,9.60
2023-01-19T12:20:30.122Z,10.40
2023-01-19T12:21:30.109Z,9.80
2023-01-19T12:22:30.107Z,10.30
2023-01-19T12:23:30.076Z,10.30
2023-01-19T12:24:30.120Z,10.60
2023-01-19T12:25:30.050Z,11.60
2023-01-19T12:26:30.059Z,12.00
2023-01-19T12:27:30.037Z,11.80
2023-01-19T12:28:30.011Z,12.10
2023-01-19T12:29:30.000Z,10.90
2023-01-19T12:30:30.095Z,11.70
2023-01-19T12:31:30.111Z,12.50
2023-01-19T12:32:29.982Z,11.60
2023-01-19T12:33:29.944Z,13.20
2023-01-19T12:34:29.967Z,13.00
2023-01-19T12:35:29.924Z,13.20
2023-01-19T12:36:29.916Z,13.40
2023-01-19T12:37:29.910Z,13.60
2023-01-19T12:38:29.881Z,14.50
2023-01-19T12:39:29.878Z,15.40
2023-01-19T12:40:29.861Z,14.90
2023-01-19T12:41:29.848Z,15.40
2023-01-19T12:42:29.876Z,16.10
2023-01-19T12:43:29.819Z,16.80
2023-01-19T12:44:29.806Z,14.50
2023-01-19T12:45:30.733Z,15.60
2023-01-19T12:46:29.882Z,17.10
2023-01-19T12:47:29.803Z,17.70
2023-01-19T12:48:29.755Z,17.80
2023-01-19T12:49:29.741Z,18.10
2023-01-19T12:50:29.751Z,17.60
2023-01-19T12:51:29.720Z,17.90
2023-01-19T12:52:29.723Z,17.60
2023-01-19T12:53:29.689Z,18.10
2023-01-19T12:54:29.679Z,17.80
2023-01-19T12:55:29.672Z,17.90
2023-01-19T12:56:29.679Z,18.70
2023-01-19T12:57:29.700Z,19.40
2023-01-19T12:58:29.629Z,19.90
2023-01-19T12:59:29.615Z,18.20
2023-01-19T13:00:29.618Z,19.90
2023-01-19T13:01:29.692Z,18.80
2023-01-19T13:02:29.595Z,19.00
2023-01-19T13:03:29.579Z,18.80